Terminal Aerodrome Forecast
Issued by NWS Corpus Christi, TX

Home | Current Version | Previous Version | Text Only | Print | Product List | Glossary On
Versions: 1 2 3 4 5 6 7 8 9 10 11 12 13
000
FTUS44 KCRP 131100
TAFVCT
TAF
KVCT 131120Z 1312/1412 VRB03KT 6SM BR FEW005 SCT015
      TEMPO 1312/1314 3SM BR
     FM131400 21006KT P6SM SCT025
     FM131800 15010KT P6SM SCT050
     FM140000 16006KT P6SM FEW025
     FM140900 20003KT 5SM BR SCT004=

USA.gov is the U.S. government's official web portal to all federal, state and local government web resources and services.